Time;durP1;ratioP1;P1;durP2;ratioP2;P2;SDS_P1;SDS_P2;PMS_P1;PMS_P2;Temp;Humidity;BMP_temperature;BMP_pressure;BME280_temperature;BME280_humidity;BME280_pressure;Samples;Min_cycle;Max_cycle;Signal;HPM_P1;HPM_P2
2023/06/06 00:03:25;;;;;;;4.68;4.20;;;;;14.60;96324.00;;;;8311903;28;20248;-68
2023/06/06 00:07:28;;;;;;;6.00;4.60;;;;;14.50;96327.00;;;;8309388;28;20731;-69
2023/06/06 00:11:46;;;;;;;7.72;4.28;;;;;14.40;96325.00;;;;8302061;28;20209;-69
2023/06/06 00:15:53;;;;;;;6.57;4.40;;;;;14.30;96320.00;;;;8308841;28;20736;-69
2023/06/06 00:20:01;;;;;;;6.80;4.78;;;;;14.30;96315.00;;;;8303338;28;20213;-69
2023/06/06 00:24:07;;;;;;;5.75;4.55;;;;;14.20;96317.00;;;;8309626;28;21438;-69
2023/06/06 00:28:15;;;;;;;6.63;4.90;;;;;14.20;96318.00;;;;8318666;28;20279;-69
2023/06/06 00:32:18;;;;;;;7.60;4.63;;;;;14.20;96315.00;;;;8313213;28;20215;-69
2023/06/06 00:36:22;;;;;;;7.47;4.50;;;;;14.20;96313.00;;;;8318101;28;20800;-69
2023/06/06 00:40:25;;;;;;;5.50;4.15;;;;;14.30;96299.00;;;;8313060;28;20293;-67
2023/06/06 00:44:29;;;;;;;5.97;4.20;;;;;14.30;96301.00;;;;8316300;28;20903;-67
2023/06/06 00:48:40;;;;;;;4.40;4.00;;;;;14.40;96298.00;;;;8310473;28;20320;-68
2023/06/06 00:52:46;;;;;;;4.72;4.13;;;;;14.40;96293.00;;;;8318646;28;20215;-67
2023/06/06 00:56:51;;;;;;;8.07;4.70;;;;;14.50;96287.00;;;;8315451;28;20229;-68
2023/06/06 01:01:00;;;;;;;5.13;4.47;;;;;14.50;96294.00;;;;8311878;28;20247;-68
2023/06/06 01:05:07;;;;;;;5.38;4.55;;;;;14.50;96301.00;;;;8310934;28;20235;-69
2023/06/06 01:09:14;;;;;;;6.13;4.00;;;;;14.60;96300.00;;;;8311204;28;20221;-68
2023/06/06 01:13:28;;;;;;;5.57;4.43;;;;;14.60;96302.00;;;;8311568;28;20256;-68
2023/06/06 01:17:36;;;;;;;4.97;4.47;;;;;14.60;96299.00;;;;8309670;28;20211;-68
2023/06/06 01:21:42;;;;;;;4.95;3.83;;;;;14.60;96301.00;;;;8310998;28;20837;-68
2023/06/06 01:25:48;;;;;;;5.38;4.40;;;;;14.60;96303.00;;;;8314424;28;20228;-69
2023/06/06 01:29:51;;;;;;;5.00;4.20;;;;;14.60;96306.00;;;;8314284;28;20235;-69
2023/06/06 01:33:59;;;;;;;4.65;4.15;;;;;14.70;96306.00;;;;8316036;28;20206;-69
2023/06/06 01:38:18;;;;;;;5.50;4.22;;;;;14.80;96303.00;;;;8310746;28;20288;-69
2023/06/06 01:42:25;;;;;;;6.55;4.10;;;;;14.80;96296.00;;;;8313074;28;20907;-69
2023/06/06 01:46:30;;;;;;;5.43;4.13;;;;;14.80;96289.00;;;;8310603;28;20295;-69
2023/06/06 01:50:36;;;;;;;5.97;4.10;;;;;14.80;96300.00;;;;8293930;28;20229;-69
2023/06/06 01:54:41;;;;;;;5.88;4.07;;;;;14.70;96301.00;;;;8312258;28;20220;-69
2023/06/06 01:58:44;;;;;;;5.43;4.47;;;;;14.70;96298.00;;;;8311455;28;20893;-69
2023/06/06 02:02:50;;;;;;;5.53;4.20;;;;;14.60;96295.00;;;;8311562;28;20319;-69
2023/06/06 02:06:55;;;;;;;6.53;4.80;;;;;14.60;96299.00;;;;8310524;28;20242;-69
2023/06/06 02:11:00;;;;;;;9.77;4.85;;;;;14.60;96306.00;;;;8312147;28;20240;-69
2023/06/06 02:15:05;;;;;;;5.53;4.10;;;;;14.60;96303.00;;;;8310633;28;20881;-68
2023/06/06 02:19:09;;;;;;;6.07;4.60;;;;;14.60;96303.00;;;;8303730;28;20203;-68
2023/06/06 02:23:18;;;;;;;5.18;4.60;;;;;14.60;96302.00;;;;8312473;28;20624;-68
2023/06/06 02:27:23;;;;;;;6.60;4.88;;;;;14.70;96306.00;;;;8310354;28;20210;-68
2023/06/06 02:31:29;;;;;;;5.25;4.40;;;;;14.80;96299.00;;;;8304349;28;20239;-67
2023/06/06 02:35:32;;;;;;;6.20;5.03;;;;;14.80;96300.00;;;;8309497;28;20207;-67
2023/06/06 02:39:38;;;;;;;5.03;4.35;;;;;14.90;96302.00;;;;8308933;28;20315;-68
2023/06/06 02:43:45;;;;;;;5.72;4.60;;;;;14.90;96302.00;;;;8310532;28;20205;-68
2023/06/06 02:47:56;;;;;;;4.95;4.43;;;;;15.00;96302.00;;;;8312735;28;20316;-68
2023/06/06 02:51:59;;;;;;;7.07;4.25;;;;;15.00;96310.00;;;;8317427;28;20251;-69
2023/06/06 02:56:02;;;;;;;5.25;4.40;;;;;15.00;96310.00;;;;8321368;28;20209;-69
2023/06/06 03:04:32;;;;;;;4.80;4.38;;;;;15.10;96308.00;;;;8365299;22;20224;-67
2023/06/06 03:08:40;;;;;;;5.03;4.53;;;;;15.10;96312.00;;;;8351059;28;20314;-68
2023/06/06 03:12:45;;;;;;;6.60;4.72;;;;;15.20;96320.00;;;;8350437;28;20797;-67
2023/06/06 03:16:51;;;;;;;5.18;4.50;;;;;15.20;96314.00;;;;8353129;28;20949;-67
2023/06/06 03:20:57;;;;;;;5.57;4.55;;;;;15.20;96323.00;;;;8354581;28;20250;-67
2023/06/06 03:25:02;;;;;;;6.88;5.18;;;;;15.30;96326.00;;;;8350840;28;20294;-67
2023/06/06 03:29:05;;;;;;;6.13;5.28;;;;;15.20;96323.00;;;;8347597;28;20686;-68
2023/06/06 03:33:10;;;;;;;5.68;4.70;;;;;15.20;96325.00;;;;8354207;28;20201;-67
2023/06/06 03:37:14;;;;;;;7.57;5.32;;;;;15.20;96327.00;;;;8347947;28;20247;-67
2023/06/06 03:41:17;;;;;;;8.32;5.63;;;;;15.30;96330.00;;;;8351729;28;20207;-68
2023/06/06 03:45:21;;;;;;;7.68;5.05;;;;;15.30;96331.00;;;;8350680;28;20201;-68
2023/06/06 03:49:26;;;;;;;5.43;4.93;;;;;15.30;96329.00;;;;8350770;28;20307;-67
2023/06/06 03:53:36;;;;;;;9.80;5.05;;;;;15.30;96331.00;;;;8353794;28;20291;-70
2023/06/06 03:57:42;;;;;;;5.88;4.90;;;;;15.30;96329.00;;;;8352694;28;20197;-70
2023/06/06 04:01:45;;;;;;;8.85;5.07;;;;;15.30;96327.00;;;;8347276;28;20215;-70
2023/06/06 04:05:50;;;;;;;7.03;4.97;;;;;15.40;96323.00;;;;8326043;28;20215;-70
2023/06/06 04:09:54;;;;;;;7.95;4.97;;;;;15.40;96327.00;;;;8322839;28;20337;-70
2023/06/06 04:13:59;;;;;;;6.45;5.60;;;;;15.50;96330.00;;;;8330311;28;20292;-70
2023/06/06 04:18:04;;;;;;;6.82;5.10;;;;;15.50;96329.00;;;;8325198;28;20215;-71
2023/06/06 04:22:09;;;;;;;7.65;5.35;;;;;15.50;96327.00;;;;8323419;28;20205;-70
2023/06/06 04:26:23;;;;;;;8.50;5.72;;;;;15.60;96321.00;;;;8333563;28;20395;-72
2023/06/06 04:30:29;;;;;;;7.60;5.90;;;;;15.60;96321.00;;;;8333085;28;20228;-71
2023/06/06 04:34:39;;;;;;;5.90;5.30;;;;;15.70;96323.00;;;;8329073;28;21021;-73
2023/06/06 04:38:46;;;;;;;6.43;5.32;;;;;15.70;96315.00;;;;8322553;28;20210;-73
2023/06/06 04:42:49;;;;;;;9.30;5.85;;;;;15.80;96310.00;;;;8331241;28;20691;-72
2023/06/06 04:47:00;;;;;;;7.15;5.40;;;;;15.90;96318.00;;;;8324421;28;20201;-71
2023/06/06 04:51:04;;;;;;;8.07;5.72;;;;;15.90;96324.00;;;;8336256;28;20247;-73
2023/06/06 04:55:09;;;;;;;7.32;5.70;;;;;16.00;96322.00;;;;8327952;28;20202;-73
2023/06/06 04:59:16;;;;;;;9.52;5.20;;;;;16.10;96321.00;;;;8327751;28;20313;-72
2023/06/06 05:03:19;;;;;;;6.35;5.60;;;;;16.20;96326.00;;;;8318946;28;20231;-72
2023/06/06 05:07:26;;;;;;;8.32;5.75;;;;;16.30;96327.00;;;;8328719;28;20566;-73
2023/06/06 05:11:30;;;;;;;10.45;5.93;;;;;16.50;96322.00;;;;8331367;28;20256;-73
2023/06/06 05:15:33;;;;;;;6.53;5.53;;;;;16.60;96317.00;;;;8324389;28;20691;-72
2023/06/06 05:19:37;;;;;;;11.52;6.13;;;;;16.70;96323.00;;;;8331435;28;20643;-73
2023/06/06 05:23:41;;;;;;;5.80;5.20;;;;;16.80;96326.00;;;;8329802;28;20201;-72
2023/06/06 05:27:51;;;;;;;8.13;5.82;;;;;16.80;96323.00;;;;8327522;28;20578;-73
2023/06/06 05:31:54;;;;;;;8.38;5.40;;;;;17.00;96323.00;;;;8323592;28;20232;-72
2023/06/06 05:36:00;;;;;;;9.88;5.32;;;;;17.20;96323.00;;;;8326927;28;20292;-73
2023/06/06 05:40:10;;;;;;;8.43;5.57;;;;;17.30;96329.00;;;;8327203;28;20197;-73
2023/06/06 05:44:14;;;;;;;7.13;5.50;;;;;17.40;96330.00;;;;8324592;28;20267;-73
2023/06/06 05:48:17;;;;;;;7.05;5.28;;;;;17.60;96326.00;;;;8323685;28;20290;-72
2023/06/06 05:52:21;;;;;;;5.82;5.00;;;;;17.70;96328.00;;;;8326242;28;20272;-73
2023/06/06 05:56:28;;;;;;;7.25;5.28;;;;;17.90;96336.00;;;;8327983;28;20202;-73
2023/06/06 06:00:34;;;;;;;7.65;5.30;;;;;18.00;96332.00;;;;8323219;28;20293;-73
2023/06/06 06:04:38;;;;;;;6.20;5.03;;;;;18.40;96322.00;;;;8323505;28;20316;-72
2023/06/06 06:08:44;;;;;;;6.57;5.47;;;;;18.80;96333.00;;;;8324370;28;20205;-73
2023/06/06 06:12:49;;;;;;;7.85;4.53;;;;;19.00;96337.00;;;;8324449;28;20677;-72
2023/06/06 06:16:54;;;;;;;9.02;5.50;;;;;19.00;96336.00;;;;8320544;28;20285;-72
2023/06/06 06:20:57;;;;;;;4.90;4.45;;;;;19.20;96341.00;;;;8325348;28;20728;-72
2023/06/06 06:25:03;;;;;;;5.53;4.97;;;;;19.70;96345.00;;;;8323538;28;20257;-73
2023/06/06 06:29:07;;;;;;;5.10;4.15;;;;;19.80;96342.00;;;;8333429;28;20193;-73
2023/06/06 06:33:14;;;;;;;4.68;4.18;;;;;19.70;96345.00;;;;8330562;28;20232;-74
2023/06/06 06:37:20;;;;;;;8.85;4.53;;;;;19.60;96352.00;;;;8330553;28;20212;-73
2023/06/06 06:41:26;;;;;;;7.72;5.32;;;;;19.70;96350.00;;;;8335192;28;20201;-74
2023/06/06 06:45:29;;;;;;;6.78;4.13;;;;;19.90;96354.00;;;;8329703;28;20557;-72
2023/06/06 06:49:34;;;;;;;5.72;4.60;;;;;20.00;96359.00;;;;8333935;28;20320;-72
2023/06/06 06:53:40;;;;;;;4.53;4.10;;;;;20.10;96359.00;;;;8334441;28;20276;-72
2023/06/06 06:57:44;;;;;;;4.78;4.38;;;;;19.90;96355.00;;;;8333118;28;20207;-72
2023/06/06 07:01:49;;;;;;;6.50;4.18;;;;;20.00;96357.00;;;;8326055;28;20193;-72
2023/06/06 07:05:57;;;;;;;7.15;5.07;;;;;20.00;96364.00;;;;8318643;28;20695;-72
2023/06/06 07:10:01;;;;;;;4.78;4.28;;;;;20.00;96358.00;;;;8326053;28;21436;-72
2023/06/06 07:14:04;;;;;;;7.88;4.82;;;;;20.20;96357.00;;;;8326595;28;20707;-72
2023/06/06 07:18:07;;;;;;;6.05;4.65;;;;;20.40;96350.00;;;;8317573;28;20221;-72
2023/06/06 07:22:14;;;;;;;6.47;3.60;;;;;20.60;96361.00;;;;8333031;28;20197;-72
2023/06/06 07:26:17;;;;;;;4.80;4.28;;;;;20.90;96362.00;;;;8329451;28;20228;-72
2023/06/06 07:30:20;;;;;;;5.30;4.10;;;;;21.00;96364.00;;;;8337227;28;20594;-73
2023/06/06 07:34:24;;;;;;;11.40;4.15;;;;;21.10;96361.00;;;;8328480;28;20219;-72
2023/06/06 07:38:33;;;;;;;6.88;4.22;;;;;21.30;96353.00;;;;8323406;28;20205;-72
2023/06/06 07:42:40;;;;;;;4.82;4.18;;;;;21.70;96361.00;;;;8338481;28;20244;-72
2023/06/06 07:46:44;;;;;;;6.00;4.47;;;;;21.90;96357.00;;;;8333631;28;20193;-72
2023/06/06 07:50:49;;;;;;;6.30;3.88;;;;;22.30;96359.00;;;;8327454;28;20753;-72
2023/06/06 07:54:53;;;;;;;10.65;4.25;;;;;22.50;96362.00;;;;8328104;28;20209;-72
2023/06/06 07:58:57;;;;;;;10.63;5.00;;;;;22.60;96369.00;;;;8328971;28;20383;-72
2023/06/06 08:03:00;;;;;;;6.35;4.53;;;;;22.80;96366.00;;;;8331517;28;20241;-72
2023/06/06 08:07:04;;;;;;;8.82;4.65;;;;;22.50;96375.00;;;;8330169;28;20273;-73
2023/06/06 08:11:08;;;;;;;6.38;4.55;;;;;22.50;96367.00;;;;8325503;28;20334;-73
2023/06/06 08:15:13;;;;;;;4.93;4.32;;;;;22.70;96377.00;;;;8331487;28;20200;-72
2023/06/06 08:19:16;;;;;;;5.90;4.40;;;;;22.60;96367.00;;;;8334913;28;20205;-72
2023/06/06 08:23:20;;;;;;;4.78;4.28;;;;;22.80;96371.00;;;;8332201;28;20205;-73
2023/06/06 08:27:24;;;;;;;4.25;3.67;;;;;22.90;96368.00;;;;8329851;28;20200;-73
2023/06/06 08:31:31;;;;;;;3.78;3.47;;;;;23.00;96373.00;;;;8329884;28;20872;-73
2023/06/06 08:35:36;;;;;;;5.18;4.28;;;;;23.30;96373.00;;;;8326532;28;20210;-73
2023/06/06 08:39:40;;;;;;;5.90;3.65;;;;;24.00;96363.00;;;;8331797;28;20259;-73
2023/06/06 08:43:47;;;;;;;4.00;3.65;;;;;24.60;96362.00;;;;8322105;28;20197;-73
2023/06/06 08:47:55;;;;;;;3.72;3.42;;;;;24.90;96359.00;;;;8322700;28;20201;-72
2023/06/06 08:52:03;;;;;;;7.50;3.72;;;;;25.20;96366.00;;;;8324851;28;20263;-74
2023/06/06 08:56:09;;;;;;;4.70;3.40;;;;;25.80;96361.00;;;;8327367;28;20197;-74
2023/06/06 09:00:21;;;;;;;3.75;3.45;;;;;26.30;96370.00;;;;8328841;28;20201;-75
2023/06/06 09:04:27;;;;;;;6.88;4.80;;;;;26.10;96376.00;;;;8325775;28;20229;-74
2023/06/06 09:08:34;;;;;;;4.20;3.15;;;;;25.90;96379.00;;;;8329685;28;20200;-77
2023/06/06 09:12:43;;;;;;;3.50;3.20;;;;;26.00;96370.00;;;;8322328;28;20768;-76
2023/06/06 09:16:48;;;;;;;3.65;3.35;;;;;26.20;96374.00;;;;8329671;28;20288;-75
2023/06/06 09:20:53;;;;;;;4.55;3.33;;;;;27.50;96373.00;;;;8327613;28;20211;-76
2023/06/06 09:24:58;;;;;;;4.72;4.05;;;;;27.10;96376.00;;;;8326342;28;20205;-77
2023/06/06 09:29:11;;;;;;;3.17;2.95;;;;;26.60;96375.00;;;;8323289;28;20206;-76
2023/06/06 09:33:16;;;;;;;3.70;3.40;;;;;26.00;96381.00;;;;8326324;28;20256;-75
2023/06/06 09:37:22;;;;;;;3.90;3.50;;;;;25.50;96376.00;;;;8324088;28;20240;-75
2023/06/06 09:41:28;;;;;;;3.90;3.60;;;;;25.30;96380.00;;;;8333851;28;20690;-76
2023/06/06 09:45:31;;;;;;;6.28;4.18;;;;;25.20;96375.00;;;;8332188;28;20654;-74
2023/06/06 09:49:37;;;;;;;3.70;3.40;;;;;25.40;96374.00;;;;8326597;28;20270;-75
2023/06/06 09:53:42;;;;;;;4.68;3.00;;;;;26.40;96375.00;;;;8329993;28;20236;-75
2023/06/06 09:57:48;;;;;;;3.55;3.25;;;;;27.20;96371.00;;;;8332046;28;20657;-76
2023/06/06 10:01:58;;;;;;;4.03;3.42;;;;;27.00;96371.00;;;;8323942;28;20276;-76
2023/06/06 10:06:08;;;;;;;5.13;3.60;;;;;26.50;96371.00;;;;8327969;28;20243;-76
2023/06/06 10:10:13;;;;;;;3.25;2.95;;;;;25.90;96378.00;;;;8334549;28;20201;-76
2023/06/06 10:14:22;;;;;;;3.47;3.03;;;;;25.40;96371.00;;;;8323656;28;20206;-76
2023/06/06 10:18:26;;;;;;;4.32;3.03;;;;;25.10;96372.00;;;;8320517;28;20635;-76
2023/06/06 10:22:32;;;;;;;4.88;3.15;;;;;25.30;96365.00;;;;8327664;28;20736;-76
2023/06/06 10:26:43;;;;;;;3.00;2.80;;;;;25.10;96370.00;;;;8327517;28;20194;-75
2023/06/06 10:30:59;;;;;;;2.85;2.65;;;;;25.00;96368.00;;;;8322242;28;20233;-75
2023/06/06 10:35:06;;;;;;;3.55;3.28;;;;;24.90;96369.00;;;;8324185;28;20198;-76
2023/06/06 10:39:21;;;;;;;3.03;2.83;;;;;24.90;96382.00;;;;8319188;28;20284;-76
2023/06/06 10:43:55;;;;;;;3.92;2.85;;;;;24.70;96377.00;;;;8329559;28;20204;-75
2023/06/06 10:48:05;;;;;;;3.30;3.00;;;;;24.80;96381.00;;;;8321324;28;20205;-76
2023/06/06 10:52:09;;;;;;;4.55;2.92;;;;;24.90;96381.00;;;;8315798;28;20320;-76
2023/06/06 10:56:32;;;;;;;2.80;2.60;;;;;25.20;96382.00;;;;8326729;28;20200;-77
2023/06/06 11:00:39;;;;;;;5.53;2.88;;;;;25.90;96382.00;;;;8323622;28;20208;-74
2023/06/06 11:04:43;;;;;;;3.13;2.85;;;;;26.40;96386.00;;;;8325484;28;20224;-76
2023/06/06 11:08:53;;;;;;;4.38;2.70;;;;;26.30;96389.00;;;;8322490;28;20723;-76
2023/06/06 11:13:27;;;;;;;2.63;2.47;;;;;26.40;96389.00;;;;8337685;28;20224;-75
2023/06/06 11:17:46;;;;;;;3.03;2.72;;;;;26.20;96392.00;;;;8335797;28;20275;-74
2023/06/06 11:21:59;;;;;;;3.85;3.05;;;;;26.30;96389.00;;;;8332979;28;20197;-75
2023/06/06 11:26:09;;;;;;;5.95;3.25;;;;;26.10;96394.00;;;;8337557;28;20208;-75
2023/06/06 11:30:16;;;;;;;4.40;3.63;;;;;25.60;96384.00;;;;8330092;28;20225;-76
2023/06/06 11:34:21;;;;;;;6.68;4.07;;;;;25.20;96397.00;;;;8324936;28;20228;-76
2023/06/06 11:38:30;;;;;;;7.00;4.68;;;;;24.90;96391.00;;;;8333301;28;20254;-76
2023/06/06 11:42:36;;;;;;;4.93;3.95;;;;;24.50;96394.00;;;;8333584;28;20209;-75
2023/06/06 11:46:48;;;;;;;5.22;4.05;;;;;24.40;96392.00;;;;8324796;28;20190;-76
2023/06/06 11:50:57;;;;;;;5.25;3.83;;;;;24.10;96394.00;;;;8331632;28;20212;-74
2023/06/06 11:55:05;;;;;;;4.40;4.00;;;;;24.00;96392.00;;;;8321637;28;20296;-76
2023/06/06 11:59:09;;;;;;;4.93;4.43;;;;;23.80;96396.00;;;;8333380;28;20299;-75
2023/06/06 12:03:16;;;;;;;4.63;3.90;;;;;23.80;96397.00;;;;8328603;28;20794;-76
2023/06/06 12:07:20;;;;;;;7.68;4.43;;;;;23.90;96396.00;;;;8326820;28;20205;-76
2023/06/06 12:11:26;;;;;;;6.18;4.30;;;;;24.10;96395.00;;;;8324971;28;20225;-75
2023/06/06 12:15:44;;;;;;;6.82;4.30;;;;;24.30;96390.00;;;;8325130;28;20207;-76
2023/06/06 12:19:54;;;;;;;7.78;4.55;;;;;24.60;96383.00;;;;8331195;28;20266;-76
2023/06/06 12:24:18;;;;;;;4.30;3.90;;;;;25.10;96377.00;;;;8329619;28;20909;-76
2023/06/06 12:28:23;;;;;;;5.32;4.03;;;;;25.80;96370.00;;;;8328210;28;20197;-75
2023/06/06 12:32:29;;;;;;;5.55;4.05;;;;;27.70;96377.00;;;;8320516;28;20260;-75
2023/06/06 12:36:34;;;;;;;4.85;4.00;;;;;28.90;96375.00;;;;8327109;28;20193;-75
2023/06/06 12:40:37;;;;;;;4.50;4.07;;;;;29.40;96383.00;;;;8329534;28;20201;-76
2023/06/06 12:44:42;;;;;;;4.90;4.35;;;;;28.80;96378.00;;;;8333000;28;20212;-76
2023/06/06 12:48:45;;;;;;;4.40;3.97;;;;;28.00;96375.00;;;;8329579;28;20706;-76
2023/06/06 12:52:49;;;;;;;5.28;4.15;;;;;28.10;96371.00;;;;8317817;28;20316;-76
2023/06/06 12:56:53;;;;;;;4.30;3.75;;;;;28.40;96367.00;;;;8326113;28;20235;-76
2023/06/06 13:00:58;;;;;;;4.85;3.65;;;;;28.90;96370.00;;;;8321086;28;20280;-76
2023/06/06 13:05:02;;;;;;;4.28;3.88;;;;;29.10;96372.00;;;;8327648;28;20264;-76
2023/06/06 13:09:06;;;;;;;4.95;4.00;;;;;29.10;96371.00;;;;8330679;28;20229;-75
2023/06/06 13:13:11;;;;;;;4.28;3.88;;;;;28.30;96364.00;;;;8326994;28;20578;-75
2023/06/06 13:17:14;;;;;;;11.75;4.45;;;;;27.10;96364.00;;;;8327508;28;20229;-76
2023/06/06 13:21:17;;;;;;;7.45;4.72;;;;;26.20;96367.00;;;;8329402;28;20207;-75
2023/06/06 13:25:22;;;;;;;6.53;5.03;;;;;25.70;96364.00;;;;8331868;28;20201;-76
2023/06/06 13:29:27;;;;;;;6.15;4.60;;;;;25.30;96363.00;;;;8338205;28;20196;-75
2023/06/06 13:33:33;;;;;;;5.88;4.47;;;;;24.80;96362.00;;;;8333568;28;20232;-76
2023/06/06 13:37:39;;;;;;;5.78;4.65;;;;;24.60;96360.00;;;;8340251;28;20205;-75
2023/06/06 13:41:44;;;;;;;5.38;4.35;;;;;24.70;96360.00;;;;8327001;28;20204;-75
2023/06/06 13:45:54;;;;;;;5.78;4.18;;;;;24.70;96358.00;;;;8332286;28;20194;-75
2023/06/06 13:49:58;;;;;;;6.43;4.35;;;;;24.60;96367.00;;;;8337464;28;20957;-76
2023/06/06 13:54:05;;;;;;;6.28;4.28;;;;;24.40;96361.00;;;;8328284;28;20647;-75
2023/06/06 13:58:10;;;;;;;5.82;3.80;;;;;24.20;96357.00;;;;8323183;28;20932;-74
2023/06/06 14:02:17;;;;;;;6.85;4.35;;;;;24.00;96360.00;;;;8318987;28;20229;-77
2023/06/06 14:06:21;;;;;;;4.97;4.45;;;;;24.00;96350.00;;;;8321923;28;20202;-77
2023/06/06 14:10:26;;;;;;;6.32;4.30;;;;;24.00;96353.00;;;;8325192;28;20197;-77
2023/06/06 14:14:32;;;;;;;5.40;4.30;;;;;24.00;96351.00;;;;8327899;28;20229;-76
2023/06/06 14:18:38;;;;;;;5.75;3.78;;;;;24.10;96357.00;;;;8326682;28;20204;-76
2023/06/06 14:22:43;;;;;;;4.20;3.80;;;;;24.10;96356.00;;;;8328749;28;20669;-78
2023/06/06 14:26:46;;;;;;;5.75;3.97;;;;;24.10;96349.00;;;;8326741;28;20679;-77
2023/06/06 14:30:52;;;;;;;4.85;3.67;;;;;24.40;96344.00;;;;8327934;28;20211;-75
2023/06/06 14:34:56;;;;;;;4.00;3.65;;;;;25.50;96340.00;;;;8325585;28;20224;-77
2023/06/06 14:39:06;;;;;;;3.72;3.42;;;;;26.50;96341.00;;;;8325034;28;20974;-77
2023/06/06 14:43:10;;;;;;;3.72;3.40;;;;;25.80;96346.00;;;;8323647;28;20233;-75
2023/06/06 14:47:14;;;;;;;3.78;3.47;;;;;25.20;96354.00;;;;8325458;28;20284;-77
2023/06/06 14:51:20;;;;;;;3.78;3.35;;;;;24.90;96344.00;;;;8334192;28;20280;-74
2023/06/06 14:55:24;;;;;;;6.13;3.90;;;;;25.00;96349.00;;;;8329529;28;20225;-74
2023/06/06 14:59:29;;;;;;;5.85;3.78;;;;;24.70;96348.00;;;;8332102;28;20199;-74
2023/06/06 15:03:35;;;;;;;4.35;3.95;;;;;24.40;96347.00;;;;8336187;28;20782;-72
2023/06/06 15:07:38;;;;;;;3.92;3.63;;;;;24.20;96351.00;;;;8329787;28;20194;-73
2023/06/06 15:11:43;;;;;;;7.55;3.40;;;;;24.30;96347.00;;;;8336144;28;20204;-73
2023/06/06 15:15:46;;;;;;;3.50;3.20;;;;;24.50;96350.00;;;;8324890;28;20312;-73
2023/06/06 15:19:51;;;;;;;4.28;3.20;;;;;24.70;96351.00;;;;8337000;28;20268;-73
2023/06/06 15:23:54;;;;;;;3.55;3.25;;;;;24.90;96358.00;;;;8327941;28;20284;-73
2023/06/06 15:28:04;;;;;;;3.40;3.20;;;;;25.10;96346.00;;;;8324843;28;20209;-73
2023/06/06 15:32:10;;;;;;;2.85;2.67;;;;;25.10;96342.00;;;;8325480;28;20283;-73
2023/06/06 15:36:14;;;;;;;2.92;2.72;;;;;25.00;96344.00;;;;8330213;28;20236;-73
2023/06/06 15:40:18;;;;;;;4.60;2.88;;;;;24.80;96346.00;;;;8328597;28;21272;-73
2023/06/06 15:44:21;;;;;;;2.95;2.75;;;;;25.10;96349.00;;;;8328361;28;21991;-69
2023/06/06 15:48:26;;;;;;;3.30;3.00;;;;;25.50;96357.00;;;;8334562;28;20204;-69
2023/06/06 15:52:33;;;;;;;3.13;2.92;;;;;25.40;96347.00;;;;8322286;28;20769;-70
2023/06/06 15:56:40;;;;;;;3.38;3.08;;;;;25.60;96342.00;;;;8333669;28;20197;-71
2023/06/06 16:00:46;;;;;;;2.83;2.63;;;;;26.10;96341.00;;;;8328566;28;20608;-72
2023/06/06 16:04:50;;;;;;;4.90;3.40;;;;;26.50;96346.00;;;;8331359;28;20614;-71
2023/06/06 16:08:55;;;;;;;3.70;3.40;;;;;26.40;96348.00;;;;8333006;28;20320;-71
2023/06/06 16:12:58;;;;;;;3.78;3.47;;;;;26.20;96346.00;;;;8341479;28;20729;-71
2023/06/06 16:17:02;;;;;;;3.45;3.25;;;;;25.90;96341.00;;;;8334938;28;20300;-71
2023/06/06 16:21:15;;;;;;;4.50;3.55;;;;;25.80;96341.00;;;;8323984;28;20205;-71
2023/06/06 16:25:19;;;;;;;5.50;3.25;;;;;25.80;96350.00;;;;8338377;28;20312;-71
2023/06/06 16:29:22;;;;;;;3.25;2.95;;;;;25.60;96345.00;;;;8329930;28;20859;-76
2023/06/06 16:33:26;;;;;;;3.30;3.00;;;;;25.60;96355.00;;;;8335616;28;20609;-76
2023/06/06 16:37:29;;;;;;;3.35;2.85;;;;;25.50;96349.00;;;;8327489;28;21115;-77
2023/06/06 16:41:34;;;;;;;3.17;2.97;;;;;25.40;96349.00;;;;8332583;28;20308;-77
2023/06/06 16:45:37;;;;;;;3.10;2.90;;;;;25.60;96345.00;;;;8335292;28;20672;-75
2023/06/06 16:49:40;;;;;;;3.20;3.00;;;;;25.60;96346.00;;;;8334355;28;20237;-76
2023/06/06 16:53:45;;;;;;;3.78;3.00;;;;;25.70;96352.00;;;;8333439;28;20225;-76
2023/06/06 16:57:52;;;;;;;3.20;3.00;;;;;25.80;96357.00;;;;8333501;28;20280;-77
2023/06/06 17:01:55;;;;;;;6.93;3.40;;;;;26.30;96371.00;;;;8322789;28;20292;-76
2023/06/06 17:06:02;;;;;;;2.80;2.70;;;;;26.50;96373.00;;;;8329615;28;20288;-76
2023/06/06 17:10:08;;;;;;;3.45;2.92;;;;;26.30;96369.00;;;;8326793;28;20229;-73
2023/06/06 17:14:13;;;;;;;3.10;2.90;;;;;26.10;96369.00;;;;8328355;28;20908;-76
2023/06/06 17:18:16;;;;;;;3.10;2.80;;;;;25.90;96362.00;;;;8327700;28;20226;-77
2023/06/06 17:22:27;;;;;;;3.55;2.80;;;;;26.00;96371.00;;;;8323109;28;20304;-75
2023/06/06 17:26:35;;;;;;;3.53;3.10;;;;;25.80;96364.00;;;;8323658;28;20210;-76
2023/06/06 17:30:40;;;;;;;2.83;2.67;;;;;25.80;96367.00;;;;8324053;28;20288;-75
2023/06/06 17:34:43;;;;;;;3.17;2.85;;;;;25.60;96368.00;;;;8327176;28;20312;-76
2023/06/06 17:38:46;;;;;;;3.05;2.92;;;;;25.40;96364.00;;;;8322723;28;20200;-75
2023/06/06 17:42:51;;;;;;;3.15;2.95;;;;;25.10;96365.00;;;;8329349;28;20694;-72
2023/06/06 17:46:55;;;;;;;3.30;3.00;;;;;25.10;96370.00;;;;8323365;28;20208;-71
2023/06/06 17:50:59;;;;;;;2.75;2.55;;;;;25.20;96374.00;;;;8329777;28;20204;-71
2023/06/06 17:55:03;;;;;;;2.75;2.55;;;;;24.50;96373.00;;;;8336469;28;20225;-71
2023/06/06 17:59:09;;;;;;;4.00;2.80;;;;;23.70;96381.00;;;;8320443;28;20216;-71
2023/06/06 18:03:15;;;;;;;2.97;2.80;;;;;23.00;96377.00;;;;8334098;28;20504;-70
2023/06/06 18:07:18;;;;;;;3.22;3.03;;;;;22.60;96377.00;;;;8331068;28;20853;-71
2023/06/06 18:11:22;;;;;;;3.50;3.20;;;;;22.10;96382.00;;;;8330596;28;20228;-70
2023/06/06 18:15:28;;;;;;;3.55;3.25;;;;;21.80;96377.00;;;;8334017;28;20236;-70
2023/06/06 18:19:34;;;;;;;4.13;3.03;;;;;21.60;96377.00;;;;8325042;28;20193;-71
2023/06/06 18:23:39;;;;;;;5.20;3.33;;;;;21.40;96383.00;;;;8324128;28;20205;-71
2023/06/06 18:27:43;;;;;;;3.20;3.00;;;;;21.20;96383.00;;;;8335589;28;20201;-70
2023/06/06 18:31:46;;;;;;;2.95;2.75;;;;;21.00;96381.00;;;;8333124;28;20626;-70
2023/06/06 18:35:51;;;;;;;5.18;3.28;;;;;20.80;96382.00;;;;8337262;28;20830;-70
2023/06/06 18:39:58;;;;;;;4.50;3.42;;;;;20.60;96381.00;;;;8323503;28;20229;-69
2023/06/06 18:44:04;;;;;;;7.22;3.35;;;;;20.40;96377.00;;;;8326393;28;20649;-70
2023/06/06 18:48:08;;;;;;;3.63;3.33;;;;;20.30;96386.00;;;;8326826;28;20208;-70
2023/06/06 18:52:16;;;;;;;3.63;3.33;;;;;20.10;96385.00;;;;8333561;28;20207;-70
2023/06/06 18:56:20;;;;;;;3.60;3.30;;;;;19.80;96389.00;;;;8334420;28;20311;-70
2023/06/06 19:00:23;;;;;;;4.85;3.40;;;;;19.60;96395.00;;;;8329279;28;20215;-70
2023/06/06 19:04:27;;;;;;;6.18;3.35;;;;;19.40;96403.00;;;;8325021;28;20224;-69
2023/06/06 19:08:34;;;;;;;3.47;3.25;;;;;19.10;96402.00;;;;8331262;28;20201;-70
2023/06/06 19:12:37;;;;;;;3.30;3.10;;;;;18.90;96403.00;;;;8325522;28;20227;-70
2023/06/06 19:16:46;;;;;;;3.47;3.20;;;;;18.80;96404.00;;;;8329716;28;20221;-70
2023/06/06 19:20:50;;;;;;;3.83;3.47;;;;;18.70;96414.00;;;;8334145;28;20267;-70
2023/06/06 19:24:54;;;;;;;3.08;2.88;;;;;18.60;96412.00;;;;8328139;28;20201;-70
2023/06/06 19:28:58;;;;;;;3.65;3.20;;;;;18.40;96431.00;;;;8320749;28;20648;-70
2023/06/06 19:33:02;;;;;;;3.30;3.05;;;;;18.30;96435.00;;;;8324556;28;20236;-70
2023/06/06 19:37:07;;;;;;;3.80;3.60;;;;;18.20;96431.00;;;;8324853;28;20225;-69
2023/06/06 19:41:12;;;;;;;3.75;3.45;;;;;18.10;96426.00;;;;8333927;28;20197;-70
2023/06/06 19:45:19;;;;;;;3.42;3.13;;;;;18.00;96435.00;;;;8333631;28;20241;-76
2023/06/06 19:49:25;;;;;;;2.95;2.75;;;;;18.00;96436.00;;;;8330159;28;20204;-76
2023/06/06 19:53:28;;;;;;;3.08;2.88;;;;;17.90;96440.00;;;;8325463;28;20234;-76
2023/06/06 19:57:33;;;;;;;3.25;3.05;;;;;17.80;96432.00;;;;8321613;28;21098;-75
2023/06/06 20:01:37;;;;;;;3.00;2.80;;;;;17.70;96434.00;;;;8320449;28;20200;-81
2023/06/06 20:05:40;;;;;;;3.17;2.97;;;;;17.60;96438.00;;;;8327567;28;20830;-77
2023/06/06 20:09:44;;;;;;;3.30;3.10;;;;;17.50;96447.00;;;;8324957;28;20233;-75
2023/06/06 20:13:48;;;;;;;3.60;3.08;;;;;17.40;96433.00;;;;8329526;28;20281;-82
2023/06/06 20:17:53;;;;;;;5.50;3.05;;;;;17.30;96431.00;;;;8323382;28;20987;-75
2023/06/06 20:21:58;;;;;;;4.68;3.50;;;;;17.20;96433.00;;;;8331256;28;20216;-79
2023/06/06 20:26:03;;;;;;;5.20;3.35;;;;;17.10;96429.00;;;;8328507;28;20197;-81
2023/06/06 20:30:09;;;;;;;3.40;3.10;;;;;17.00;96429.00;;;;8323174;28;20212;-76
2023/06/06 20:34:12;;;;;;;4.40;3.17;;;;;16.90;96430.00;;;;8335465;28;20212;-73
2023/06/06 20:38:16;;;;;;;3.85;3.55;;;;;16.80;96429.00;;;;8327646;28;20312;-76